sensor_id;sensor_type;location;lat;lon;timestamp;P1;durP1;ratioP1;P2;durP2;ratioP2
2658;SDS011;1339;53.304;10.406;2023-05-10T00:00:54;5.57;;;4.43;;
2658;SDS011;1339;53.304;10.406;2023-05-10T00:03:21;5.40;;;4.97;;
2658;SDS011;1339;53.304;10.406;2023-05-10T00:05:48;4.00;;;3.70;;
2658;SDS011;1339;53.304;10.406;2023-05-10T00:08:15;4.30;;;3.60;;
2658;SDS011;1339;53.304;10.406;2023-05-10T00:10:42;4.50;;;4.10;;
2658;SDS011;1339;53.304;10.406;2023-05-10T00:13:09;6.83;;;4.07;;
2658;SDS011;1339;53.304;10.406;2023-05-10T00:15:36;4.60;;;4.20;;
2658;SDS011;1339;53.304;10.406;2023-05-10T00:18:04;5.70;;;4.10;;
2658;SDS011;1339;53.304;10.406;2023-05-10T00:20:31;3.60;;;3.30;;
2658;SDS011;1339;53.304;10.406;2023-05-10T00:22:58;4.20;;;3.90;;
2658;SDS011;1339;53.304;10.406;2023-05-10T00:25:25;6.53;;;4.47;;
2658;SDS011;1339;53.304;10.406;2023-05-10T00:27:52;6.13;;;4.57;;
2658;SDS011;1339;53.304;10.406;2023-05-10T00:30:20;4.07;;;3.77;;
2658;SDS011;1339;53.304;10.406;2023-05-10T00:32:47;5.23;;;4.40;;
2658;SDS011;1339;53.304;10.406;2023-05-10T00:35:16;7.50;;;4.07;;
2658;SDS011;1339;53.304;10.406;2023-05-10T00:37:43;5.10;;;4.67;;
2658;SDS011;1339;53.304;10.406;2023-05-10T00:40:10;6.03;;;4.00;;
2658;SDS011;1339;53.304;10.406;2023-05-10T00:42:37;4.50;;;4.10;;
2658;SDS011;1339;53.304;10.406;2023-05-10T00:45:05;5.40;;;3.90;;
2658;SDS011;1339;53.304;10.406;2023-05-10T00:47:32;4.47;;;4.07;;
2658;SDS011;1339;53.304;10.406;2023-05-10T00:49:59;5.10;;;3.87;;
2658;SDS011;1339;53.304;10.406;2023-05-10T00:52:28;3.70;;;3.50;;
2658;SDS011;1339;53.304;10.406;2023-05-10T00:54:55;4.77;;;3.70;;
2658;SDS011;1339;53.304;10.406;2023-05-10T00:57:23;5.17;;;4.23;;
2658;SDS011;1339;53.304;10.406;2023-05-10T00:59:50;5.13;;;4.20;;
2658;SDS011;1339;53.304;10.406;2023-05-10T01:02:18;4.73;;;3.20;;
2658;SDS011;1339;53.304;10.406;2023-05-10T01:04:45;4.77;;;4.27;;
2658;SDS011;1339;53.304;10.406;2023-05-10T01:07:12;3.97;;;3.67;;
2658;SDS011;1339;53.304;10.406;2023-05-10T01:09:40;4.60;;;4.30;;
2658;SDS011;1339;53.304;10.406;2023-05-10T01:12:08;4.07;;;3.67;;
2658;SDS011;1339;53.304;10.406;2023-05-10T01:14:35;3.83;;;3.53;;
2658;SDS011;1339;53.304;10.406;2023-05-10T01:17:02;4.50;;;4.07;;
2658;SDS011;1339;53.304;10.406;2023-05-10T01:19:29;6.13;;;4.47;;
2658;SDS011;1339;53.304;10.406;2023-05-10T01:22:01;4.03;;;3.73;;
2658;SDS011;1339;53.304;10.406;2023-05-10T01:24:36;4.40;;;3.93;;
2658;SDS011;1339;53.304;10.406;2023-05-10T01:27:18;5.47;;;4.97;;
2658;SDS011;1339;53.304;10.406;2023-05-10T01:29:56;7.60;;;4.33;;
2658;SDS011;1339;53.304;10.406;2023-05-10T01:32:28;4.47;;;4.13;;
2658;SDS011;1339;53.304;10.406;2023-05-10T01:34:58;8.17;;;4.27;;
2658;SDS011;1339;53.304;10.406;2023-05-10T01:37:29;4.35;;;3.95;;
2658;SDS011;1339;53.304;10.406;2023-05-10T01:39:58;6.80;;;4.82;;
2658;SDS011;1339;53.304;10.406;2023-05-10T01:42:28;4.22;;;3.83;;
2658;SDS011;1339;53.304;10.406;2023-05-10T01:45:02;4.57;;;4.17;;
2658;SDS011;1339;53.304;10.406;2023-05-10T01:47:34;6.27;;;4.63;;
2658;SDS011;1339;53.304;10.406;2023-05-10T01:50:04;4.60;;;4.07;;
2658;SDS011;1339;53.304;10.406;2023-05-10T01:52:32;4.60;;;4.10;;
2658;SDS011;1339;53.304;10.406;2023-05-10T01:55:00;4.70;;;4.30;;
2658;SDS011;1339;53.304;10.406;2023-05-10T01:57:31;5.43;;;4.10;;
2658;SDS011;1339;53.304;10.406;2023-05-10T01:59:59;4.80;;;4.30;;
2658;SDS011;1339;53.304;10.406;2023-05-10T02:02:27;6.63;;;4.90;;
2658;SDS011;1339;53.304;10.406;2023-05-10T02:04:57;6.35;;;4.07;;
2658;SDS011;1339;53.304;10.406;2023-05-10T02:07:25;4.00;;;3.40;;
2658;SDS011;1339;53.304;10.406;2023-05-10T02:09:53;4.93;;;4.17;;
2658;SDS011;1339;53.304;10.406;2023-05-10T02:12:20;6.07;;;5.22;;
2658;SDS011;1339;53.304;10.406;2023-05-10T02:14:48;5.22;;;4.72;;
2658;SDS011;1339;53.304;10.406;2023-05-10T02:17:17;4.53;;;4.15;;
2658;SDS011;1339;53.304;10.406;2023-05-10T02:19:45;8.70;;;4.63;;
2658;SDS011;1339;53.304;10.406;2023-05-10T02:22:15;4.65;;;4.25;;
2658;SDS011;1339;53.304;10.406;2023-05-10T02:24:43;5.30;;;4.60;;
2658;SDS011;1339;53.304;10.406;2023-05-10T02:27:11;7.82;;;5.43;;
2658;SDS011;1339;53.304;10.406;2023-05-10T02:29:38;4.85;;;4.45;;
2658;SDS011;1339;53.304;10.406;2023-05-10T02:32:06;4.20;;;3.83;;
2658;SDS011;1339;53.304;10.406;2023-05-10T02:34:33;6.07;;;5.55;;
2658;SDS011;1339;53.304;10.406;2023-05-10T02:37:01;3.58;;;3.28;;
2658;SDS011;1339;53.304;10.406;2023-05-10T02:39:30;5.50;;;5.00;;
2658;SDS011;1339;53.304;10.406;2023-05-10T02:41:58;4.90;;;4.47;;
2658;SDS011;1339;53.304;10.406;2023-05-10T02:44:27;4.90;;;4.35;;
2658;SDS011;1339;53.304;10.406;2023-05-10T02:46:56;5.57;;;5.07;;
2658;SDS011;1339;53.304;10.406;2023-05-10T02:49:23;4.90;;;4.40;;
2658;SDS011;1339;53.304;10.406;2023-05-10T02:51:51;4.25;;;3.95;;
2658;SDS011;1339;53.304;10.406;2023-05-10T02:54:20;4.78;;;4.38;;
2658;SDS011;1339;53.304;10.406;2023-05-10T02:56:50;4.72;;;4.28;;
2658;SDS011;1339;53.304;10.406;2023-05-10T02:59:17;4.40;;;4.00;;
2658;SDS011;1339;53.304;10.406;2023-05-10T03:01:44;5.22;;;4.72;;
2658;SDS011;1339;53.304;10.406;2023-05-10T03:04:11;4.20;;;3.90;;
2658;SDS011;1339;53.304;10.406;2023-05-10T03:06:38;5.15;;;4.75;;
2658;SDS011;1339;53.304;10.406;2023-05-10T03:09:06;5.10;;;4.20;;
2658;SDS011;1339;53.304;10.406;2023-05-10T03:11:37;7.22;;;4.82;;
2658;SDS011;1339;53.304;10.406;2023-05-10T03:14:13;4.93;;;4.53;;
2658;SDS011;1339;53.304;10.406;2023-05-10T03:16:44;4.80;;;4.40;;
2658;SDS011;1339;53.304;10.406;2023-05-10T03:19:15;4.38;;;4.07;;
2658;SDS011;1339;53.304;10.406;2023-05-10T03:21:44;4.82;;;4.20;;
2658;SDS011;1339;53.304;10.406;2023-05-10T03:24:13;4.82;;;4.43;;
2658;SDS011;1339;53.304;10.406;2023-05-10T03:26:40;5.35;;;4.65;;
2658;SDS011;1339;53.304;10.406;2023-05-10T03:29:11;4.85;;;4.38;;
2658;SDS011;1339;53.304;10.406;2023-05-10T03:31:39;10.20;;;4.68;;
2658;SDS011;1339;53.304;10.406;2023-05-10T03:34:06;4.15;;;3.80;;
2658;SDS011;1339;53.304;10.406;2023-05-10T03:36:33;4.60;;;4.20;;
2658;SDS011;1339;53.304;10.406;2023-05-10T03:39:01;5.10;;;4.60;;
2658;SDS011;1339;53.304;10.406;2023-05-10T03:41:28;4.85;;;4.47;;
2658;SDS011;1339;53.304;10.406;2023-05-10T03:43:55;4.80;;;4.40;;
2658;SDS011;1339;53.304;10.406;2023-05-10T03:46:24;5.20;;;4.70;;
2658;SDS011;1339;53.304;10.406;2023-05-10T03:48:50;4.60;;;4.20;;
2658;SDS011;1339;53.304;10.406;2023-05-10T03:51:17;6.43;;;5.57;;
2658;SDS011;1339;53.304;10.406;2023-05-10T03:53:45;4.85;;;4.30;;
2658;SDS011;1339;53.304;10.406;2023-05-10T03:56:12;5.20;;;4.70;;
2658;SDS011;1339;53.304;10.406;2023-05-10T03:58:39;4.40;;;3.83;;
2658;SDS011;1339;53.304;10.406;2023-05-10T04:01:06;6.00;;;4.80;;
2658;SDS011;1339;53.304;10.406;2023-05-10T04:03:34;4.88;;;4.38;;
2658;SDS011;1339;53.304;10.406;2023-05-10T04:06:03;5.65;;;5.00;;
2658;SDS011;1339;53.304;10.406;2023-05-10T04:08:30;4.95;;;4.55;;
2658;SDS011;1339;53.304;10.406;2023-05-10T04:11:04;4.93;;;4.53;;
2658;SDS011;1339;53.304;10.406;2023-05-10T04:13:32;4.53;;;3.95;;
2658;SDS011;1339;53.304;10.406;2023-05-10T04:15:59;4.95;;;3.60;;
2658;SDS011;1339;53.304;10.406;2023-05-10T04:18:26;5.28;;;4.88;;
2658;SDS011;1339;53.304;10.406;2023-05-10T04:20:54;5.75;;;4.82;;
2658;SDS011;1339;53.304;10.406;2023-05-10T04:23:21;4.65;;;4.25;;
2658;SDS011;1339;53.304;10.406;2023-05-10T04:25:48;7.82;;;4.50;;
2658;SDS011;1339;53.304;10.406;2023-05-10T04:28:15;5.60;;;5.05;;
2658;SDS011;1339;53.304;10.406;2023-05-10T04:30:42;5.47;;;4.88;;
2658;SDS011;1339;53.304;10.406;2023-05-10T04:33:09;5.47;;;4.30;;
2658;SDS011;1339;53.304;10.406;2023-05-10T04:35:36;6.18;;;5.10;;
2658;SDS011;1339;53.304;10.406;2023-05-10T04:38:06;5.25;;;4.05;;
2658;SDS011;1339;53.304;10.406;2023-05-10T04:40:33;4.97;;;4.57;;
2658;SDS011;1339;53.304;10.406;2023-05-10T04:43:00;4.55;;;4.15;;
2658;SDS011;1339;53.304;10.406;2023-05-10T04:45:27;5.10;;;4.60;;
2658;SDS011;1339;53.304;10.406;2023-05-10T04:47:55;5.05;;;4.63;;
2658;SDS011;1339;53.304;10.406;2023-05-10T04:50:22;5.32;;;4.70;;
2658;SDS011;1339;53.304;10.406;2023-05-10T04:52:49;6.25;;;4.30;;
2658;SDS011;1339;53.304;10.406;2023-05-10T04:55:17;4.75;;;4.43;;
2658;SDS011;1339;53.304;10.406;2023-05-10T04:57:44;4.93;;;4.53;;
2658;SDS011;1339;53.304;10.406;2023-05-10T05:00:11;8.38;;;5.15;;
2658;SDS011;1339;53.304;10.406;2023-05-10T05:02:41;5.70;;;5.20;;
2658;SDS011;1339;53.304;10.406;2023-05-10T05:05:08;5.07;;;4.60;;
2658;SDS011;1339;53.304;10.406;2023-05-10T05:07:35;4.60;;;4.20;;
2658;SDS011;1339;53.304;10.406;2023-05-10T05:10:03;5.15;;;4.50;;
2658;SDS011;1339;53.304;10.406;2023-05-10T05:12:31;7.50;;;4.65;;
2658;SDS011;1339;53.304;10.406;2023-05-10T05:14:58;10.38;;;5.18;;
2658;SDS011;1339;53.304;10.406;2023-05-10T05:17:25;6.82;;;4.75;;
2658;SDS011;1339;53.304;10.406;2023-05-10T05:19:52;5.68;;;4.85;;
2658;SDS011;1339;53.304;10.406;2023-05-10T05:22:19;5.72;;;4.82;;
2658;SDS011;1339;53.304;10.406;2023-05-10T05:24:52;5.22;;;4.72;;
2658;SDS011;1339;53.304;10.406;2023-05-10T05:27:19;5.13;;;4.00;;
2658;SDS011;1339;53.304;10.406;2023-05-10T05:29:50;4.85;;;4.45;;
2658;SDS011;1339;53.304;10.406;2023-05-10T05:32:17;4.73;;;4.37;;
2658;SDS011;1339;53.304;10.406;2023-05-10T05:34:44;5.60;;;4.30;;
2658;SDS011;1339;53.304;10.406;2023-05-10T05:37:12;4.33;;;4.03;;
2658;SDS011;1339;53.304;10.406;2023-05-10T05:39:39;4.60;;;4.20;;
2658;SDS011;1339;53.304;10.406;2023-05-10T05:42:07;4.83;;;4.43;;
2658;SDS011;1339;53.304;10.406;2023-05-10T05:44:34;5.43;;;4.93;;
2658;SDS011;1339;53.304;10.406;2023-05-10T05:47:02;6.40;;;5.27;;
2658;SDS011;1339;53.304;10.406;2023-05-10T05:49:30;5.10;;;4.70;;
2658;SDS011;1339;53.304;10.406;2023-05-10T05:51:58;4.60;;;4.20;;
2658;SDS011;1339;53.304;10.406;2023-05-10T05:54:25;6.30;;;5.40;;
2658;SDS011;1339;53.304;10.406;2023-05-10T05:56:53;6.47;;;4.47;;
2658;SDS011;1339;53.304;10.406;2023-05-10T05:59:20;5.07;;;4.70;;
2658;SDS011;1339;53.304;10.406;2023-05-10T06:01:47;6.23;;;4.60;;
2658;SDS011;1339;53.304;10.406;2023-05-10T06:04:16;4.23;;;3.93;;
2658;SDS011;1339;53.304;10.406;2023-05-10T06:06:43;6.60;;;4.50;;
2658;SDS011;1339;53.304;10.406;2023-05-10T06:09:10;5.10;;;4.53;;
2658;SDS011;1339;53.304;10.406;2023-05-10T06:11:37;5.60;;;5.10;;
2658;SDS011;1339;53.304;10.406;2023-05-10T06:14:04;5.97;;;5.47;;
2658;SDS011;1339;53.304;10.406;2023-05-10T06:16:35;5.07;;;4.40;;
2658;SDS011;1339;53.304;10.406;2023-05-10T06:19:02;5.63;;;5.13;;
2658;SDS011;1339;53.304;10.406;2023-05-10T06:21:33;5.43;;;4.00;;
2658;SDS011;1339;53.304;10.406;2023-05-10T06:24:00;5.27;;;4.77;;
2658;SDS011;1339;53.304;10.406;2023-05-10T06:26:29;4.60;;;4.20;;
2658;SDS011;1339;53.304;10.406;2023-05-10T06:28:56;5.27;;;4.67;;
2658;SDS011;1339;53.304;10.406;2023-05-10T06:31:23;4.97;;;4.60;;
2658;SDS011;1339;53.304;10.406;2023-05-10T06:33:50;5.23;;;4.30;;
2658;SDS011;1339;53.304;10.406;2023-05-10T06:36:18;6.40;;;4.70;;
2658;SDS011;1339;53.304;10.406;2023-05-10T06:38:47;5.03;;;4.50;;
2658;SDS011;1339;53.304;10.406;2023-05-10T06:41:14;6.60;;;4.80;;
2658;SDS011;1339;53.304;10.406;2023-05-10T06:43:41;7.90;;;5.30;;
2658;SDS011;1339;53.304;10.406;2023-05-10T06:46:08;5.73;;;4.23;;
2658;SDS011;1339;53.304;10.406;2023-05-10T06:48:35;5.17;;;4.77;;
2658;SDS011;1339;53.304;10.406;2023-05-10T06:51:02;5.10;;;4.63;;
2658;SDS011;1339;53.304;10.406;2023-05-10T06:53:29;5.10;;;4.60;;
2658;SDS011;1339;53.304;10.406;2023-05-10T06:55:57;6.30;;;4.40;;
2658;SDS011;1339;53.304;10.406;2023-05-10T06:58:24;4.87;;;4.40;;
2658;SDS011;1339;53.304;10.406;2023-05-10T07:00:51;4.67;;;4.27;;
2658;SDS011;1339;53.304;10.406;2023-05-10T07:03:18;4.73;;;4.33;;
2658;SDS011;1339;53.304;10.406;2023-05-10T07:05:45;5.10;;;4.60;;
2658;SDS011;1339;53.304;10.406;2023-05-10T07:08:12;5.80;;;4.90;;
2658;SDS011;1339;53.304;10.406;2023-05-10T07:10:39;4.27;;;3.93;;
2658;SDS011;1339;53.304;10.406;2023-05-10T07:13:07;4.90;;;4.50;;
2658;SDS011;1339;53.304;10.406;2023-05-10T07:15:35;5.80;;;5.27;;
2658;SDS011;1339;53.304;10.406;2023-05-10T07:18:02;5.50;;;5.10;;
2658;SDS011;1339;53.304;10.406;2023-05-10T07:20:31;5.13;;;4.73;;
2658;SDS011;1339;53.304;10.406;2023-05-10T07:22:58;5.87;;;5.00;;
2658;SDS011;1339;53.304;10.406;2023-05-10T07:25:25;4.57;;;4.10;;
2658;SDS011;1339;53.304;10.406;2023-05-10T07:27:52;5.90;;;5.27;;
2658;SDS011;1339;53.304;10.406;2023-05-10T07:30:20;5.63;;;5.13;;
2658;SDS011;1339;53.304;10.406;2023-05-10T07:32:47;4.63;;;4.23;;
2658;SDS011;1339;53.304;10.406;2023-05-10T07:35:14;6.50;;;5.40;;
2658;SDS011;1339;53.304;10.406;2023-05-10T07:37:41;5.60;;;5.10;;
2658;SDS011;1339;53.304;10.406;2023-05-10T07:40:08;6.40;;;4.40;;
2658;SDS011;1339;53.304;10.406;2023-05-10T07:42:36;5.10;;;4.63;;
2658;SDS011;1339;53.304;10.406;2023-05-10T07:45:03;5.43;;;4.90;;
2658;SDS011;1339;53.304;10.406;2023-05-10T07:47:31;5.23;;;4.27;;
2658;SDS011;1339;53.304;10.406;2023-05-10T07:49:58;5.43;;;4.97;;
2658;SDS011;1339;53.304;10.406;2023-05-10T07:52:26;5.20;;;4.70;;
2658;SDS011;1339;53.304;10.406;2023-05-10T07:54:53;6.33;;;5.20;;
2658;SDS011;1339;53.304;10.406;2023-05-10T07:57:21;5.40;;;4.90;;
2658;SDS011;1339;53.304;10.406;2023-05-10T07:59:49;4.73;;;4.03;;
2658;SDS011;1339;53.304;10.406;2023-05-10T08:02:15;4.57;;;4.17;;
2658;SDS011;1339;53.304;10.406;2023-05-10T08:04:44;4.30;;;3.90;;
2658;SDS011;1339;53.304;10.406;2023-05-10T08:07:11;4.40;;;3.80;;
2658;SDS011;1339;53.304;10.406;2023-05-10T08:09:38;5.70;;;4.07;;
2658;SDS011;1339;53.304;10.406;2023-05-10T08:12:05;4.93;;;4.40;;
2658;SDS011;1339;53.304;10.406;2023-05-10T08:14:32;5.80;;;5.30;;
2658;SDS011;1339;53.304;10.406;2023-05-10T08:17:01;5.30;;;4.90;;
2658;SDS011;1339;53.304;10.406;2023-05-10T08:19:28;6.63;;;5.20;;
2658;SDS011;1339;53.304;10.406;2023-05-10T08:21:56;5.50;;;5.00;;
2658;SDS011;1339;53.304;10.406;2023-05-10T08:24:23;7.23;;;5.17;;
2658;SDS011;1339;53.304;10.406;2023-05-10T08:26:50;6.00;;;4.90;;
2658;SDS011;1339;53.304;10.406;2023-05-10T08:29:17;5.03;;;4.50;;
2658;SDS011;1339;53.304;10.406;2023-05-10T08:31:44;4.90;;;4.50;;
2658;SDS011;1339;53.304;10.406;2023-05-10T08:34:11;5.10;;;4.70;;
2658;SDS011;1339;53.304;10.406;2023-05-10T08:36:38;4.97;;;4.57;;
2658;SDS011;1339;53.304;10.406;2023-05-10T08:39:06;7.30;;;5.03;;
2658;SDS011;1339;53.304;10.406;2023-05-10T08:41:34;6.00;;;5.27;;
2658;SDS011;1339;53.304;10.406;2023-05-10T08:44:02;5.10;;;4.70;;
2658;SDS011;1339;53.304;10.406;2023-05-10T08:46:31;5.10;;;4.70;;
2658;SDS011;1339;53.304;10.406;2023-05-10T08:49:01;5.80;;;4.90;;
2658;SDS011;1339;53.304;10.406;2023-05-10T08:51:29;14.30;;;6.47;;
2658;SDS011;1339;53.304;10.406;2023-05-10T08:53:57;5.17;;;4.67;;
2658;SDS011;1339;53.304;10.406;2023-05-10T08:56:26;6.77;;;6.07;;
2658;SDS011;1339;53.304;10.406;2023-05-10T08:58:53;6.27;;;4.90;;
2658;SDS011;1339;53.304;10.406;2023-05-10T09:01:20;5.10;;;4.53;;
2658;SDS011;1339;53.304;10.406;2023-05-10T09:03:47;4.43;;;4.13;;
2658;SDS011;1339;53.304;10.406;2023-05-10T09:06:15;5.70;;;5.30;;
2658;SDS011;1339;53.304;10.406;2023-05-10T09:08:42;6.07;;;5.47;;
2658;SDS011;1339;53.304;10.406;2023-05-10T09:11:09;5.70;;;5.30;;
2658;SDS011;1339;53.304;10.406;2023-05-10T09:13:38;4.50;;;4.13;;
2658;SDS011;1339;53.304;10.406;2023-05-10T09:16:05;5.33;;;4.70;;
2658;SDS011;1339;53.304;10.406;2023-05-10T09:18:32;6.83;;;5.20;;
2658;SDS011;1339;53.304;10.406;2023-05-10T09:20:59;11.40;;;5.10;;
2658;SDS011;1339;53.304;10.406;2023-05-10T09:23:27;6.20;;;5.33;;
2658;SDS011;1339;53.304;10.406;2023-05-10T09:26:03;5.63;;;5.23;;
2658;SDS011;1339;53.304;10.406;2023-05-10T09:28:31;6.47;;;5.90;;
2658;SDS011;1339;53.304;10.406;2023-05-10T09:30:59;5.63;;;5.07;;
2658;SDS011;1339;53.304;10.406;2023-05-10T09:33:26;6.00;;;5.00;;
2658;SDS011;1339;53.304;10.406;2023-05-10T09:35:53;6.73;;;5.00;;
2658;SDS011;1339;53.304;10.406;2023-05-10T09:38:20;6.20;;;5.70;;
2658;SDS011;1339;53.304;10.406;2023-05-10T09:40:50;6.43;;;5.83;;
2658;SDS011;1339;53.304;10.406;2023-05-10T09:43:19;5.63;;;5.00;;
2658;SDS011;1339;53.304;10.406;2023-05-10T09:45:47;6.53;;;5.53;;
2658;SDS011;1339;53.304;10.406;2023-05-10T09:48:17;6.07;;;5.47;;
2658;SDS011;1339;53.304;10.406;2023-05-10T09:50:44;6.77;;;6.07;;
2658;SDS011;1339;53.304;10.406;2023-05-10T09:53:10;10.87;;;6.60;;
2658;SDS011;1339;53.304;10.406;2023-05-10T09:55:42;6.47;;;5.97;;
2658;SDS011;1339;53.304;10.406;2023-05-10T09:58:10;5.57;;;5.17;;
2658;SDS011;1339;53.304;10.406;2023-05-10T10:00:37;6.57;;;5.97;;
2658;SDS011;1339;53.304;10.406;2023-05-10T10:03:05;8.07;;;5.90;;
2658;SDS011;1339;53.304;10.406;2023-05-10T10:05:34;6.70;;;6.07;;
2658;SDS011;1339;53.304;10.406;2023-05-10T10:08:02;6.17;;;5.57;;
2658;SDS011;1339;53.304;10.406;2023-05-10T10:10:29;7.10;;;5.90;;
2658;SDS011;1339;53.304;10.406;2023-05-10T10:12:57;6.33;;;5.73;;
2658;SDS011;1339;53.304;10.406;2023-05-10T10:15:24;6.37;;;5.77;;
2658;SDS011;1339;53.304;10.406;2023-05-10T10:17:52;15.33;;;6.50;;
2658;SDS011;1339;53.304;10.406;2023-05-10T10:20:19;8.40;;;5.60;;
2658;SDS011;1339;53.304;10.406;2023-05-10T10:22:48;7.33;;;6.00;;
2658;SDS011;1339;53.304;10.406;2023-05-10T10:25:16;8.93;;;7.83;;
2658;SDS011;1339;53.304;10.406;2023-05-10T10:27:45;7.00;;;6.30;;
2658;SDS011;1339;53.304;10.406;2023-05-10T10:30:17;7.77;;;6.90;;
2658;SDS011;1339;53.304;10.406;2023-05-10T10:32:54;7.17;;;6.47;;
2658;SDS011;1339;53.304;10.406;2023-05-10T10:35:22;8.63;;;7.23;;
2658;SDS011;1339;53.304;10.406;2023-05-10T10:37:50;8.50;;;7.80;;
2658;SDS011;1339;53.304;10.406;2023-05-10T10:40:24;10.00;;;9.00;;
2658;SDS011;1339;53.304;10.406;2023-05-10T10:42:51;8.53;;;7.83;;
2658;SDS011;1339;53.304;10.406;2023-05-10T10:45:19;8.33;;;7.70;;
2658;SDS011;1339;53.304;10.406;2023-05-10T10:47:47;9.67;;;8.67;;
2658;SDS011;1339;53.304;10.406;2023-05-10T10:50:14;9.63;;;8.87;;
2658;SDS011;1339;53.304;10.406;2023-05-10T10:52:42;8.20;;;7.50;;
2658;SDS011;1339;53.304;10.406;2023-05-10T10:55:11;8.73;;;8.03;;
2658;SDS011;1339;53.304;10.406;2023-05-10T10:57:45;10.10;;;9.03;;
2658;SDS011;1339;53.304;10.406;2023-05-10T11:00:19;9.63;;;8.73;;
2658;SDS011;1339;53.304;10.406;2023-05-10T11:02:47;10.30;;;9.20;;
2658;SDS011;1339;53.304;10.406;2023-05-10T11:05:24;10.23;;;8.77;;
2658;SDS011;1339;53.304;10.406;2023-05-10T11:07:52;10.90;;;9.90;;
2658;SDS011;1339;53.304;10.406;2023-05-10T11:10:21;11.50;;;9.27;;
2658;SDS011;1339;53.304;10.406;2023-05-10T11:12:51;10.83;;;9.83;;
2658;SDS011;1339;53.304;10.406;2023-05-10T11:15:19;10.60;;;9.60;;
2658;SDS011;1339;53.304;10.406;2023-05-10T11:17:47;10.40;;;9.30;;
2658;SDS011;1339;53.304;10.406;2023-05-10T11:20:16;11.20;;;10.13;;
2658;SDS011;1339;53.304;10.406;2023-05-10T11:22:51;9.40;;;8.50;;
2658;SDS011;1339;53.304;10.406;2023-05-10T11:25:18;11.03;;;10.10;;
2658;SDS011;1339;53.304;10.406;2023-05-10T11:27:47;11.40;;;10.40;;
2658;SDS011;1339;53.304;10.406;2023-05-10T11:30:14;11.60;;;10.63;;
2658;SDS011;1339;53.304;10.406;2023-05-10T11:32:41;12.87;;;11.77;;
2658;SDS011;1339;53.304;10.406;2023-05-10T11:35:09;10.70;;;9.80;;
2658;SDS011;1339;53.304;10.406;2023-05-10T11:37:36;12.33;;;11.10;;
2658;SDS011;1339;53.304;10.406;2023-05-10T11:40:06;10.43;;;9.53;;
2658;SDS011;1339;53.304;10.406;2023-05-10T11:42:38;11.30;;;10.30;;
2658;SDS011;1339;53.304;10.406;2023-05-10T11:45:10;11.90;;;10.80;;
2658;SDS011;1339;53.304;10.406;2023-05-10T11:47:37;11.63;;;10.63;;
2658;SDS011;1339;53.304;10.406;2023-05-10T11:50:07;11.80;;;10.60;;
2658;SDS011;1339;53.304;10.406;2023-05-10T11:52:37;12.13;;;11.03;;
2658;SDS011;1339;53.304;10.406;2023-05-10T11:55:14;11.80;;;10.80;;
2658;SDS011;1339;53.304;10.406;2023-05-10T11:57:51;14.40;;;12.10;;
2658;SDS011;1339;53.304;10.406;2023-05-10T12:00:19;13.07;;;11.77;;
2658;SDS011;1339;53.304;10.406;2023-05-10T12:02:46;11.50;;;10.40;;
2658;SDS011;1339;53.304;10.406;2023-05-10T12:05:13;12.10;;;11.10;;
2658;SDS011;1339;53.304;10.406;2023-05-10T12:07:41;12.00;;;10.80;;
2658;SDS011;1339;53.304;10.406;2023-05-10T12:10:08;10.50;;;9.60;;
2658;SDS011;1339;53.304;10.406;2023-05-10T12:12:38;12.67;;;11.50;;
2658;SDS011;1339;53.304;10.406;2023-05-10T12:15:07;10.20;;;9.30;;
2658;SDS011;1339;53.304;10.406;2023-05-10T12:17:38;12.67;;;11.50;;
2658;SDS011;1339;53.304;10.406;2023-05-10T12:20:15;12.50;;;11.40;;
2658;SDS011;1339;53.304;10.406;2023-05-10T12:22:46;13.13;;;11.93;;
2658;SDS011;1339;53.304;10.406;2023-05-10T12:25:13;11.10;;;10.10;;
2658;SDS011;1339;53.304;10.406;2023-05-10T12:27:41;12.17;;;11.17;;
2658;SDS011;1339;53.304;10.406;2023-05-10T12:30:08;12.50;;;11.40;;
2658;SDS011;1339;53.304;10.406;2023-05-10T12:32:40;15.33;;;11.47;;
2658;SDS011;1339;53.304;10.406;2023-05-10T12:35:07;10.50;;;9.60;;
2658;SDS011;1339;53.304;10.406;2023-05-10T12:37:34;12.83;;;11.73;;
2658;SDS011;1339;53.304;10.406;2023-05-10T12:40:05;10.17;;;9.33;;
2658;SDS011;1339;53.304;10.406;2023-05-10T12:42:32;10.67;;;9.70;;
2658;SDS011;1339;53.304;10.406;2023-05-10T12:45:00;11.40;;;10.20;;
2658;SDS011;1339;53.304;10.406;2023-05-10T12:47:27;10.27;;;9.47;;
2658;SDS011;1339;53.304;10.406;2023-05-10T12:49:55;10.97;;;9.97;;
2658;SDS011;1339;53.304;10.406;2023-05-10T12:52:22;11.90;;;10.70;;
2658;SDS011;1339;53.304;10.406;2023-05-10T12:54:51;9.83;;;9.03;;
2658;SDS011;1339;53.304;10.406;2023-05-10T12:57:18;10.63;;;9.47;;
2658;SDS011;1339;53.304;10.406;2023-05-10T12:59:45;10.13;;;9.30;;
2658;SDS011;1339;53.304;10.406;2023-05-10T13:02:12;10.73;;;9.80;;
2658;SDS011;1339;53.304;10.406;2023-05-10T13:04:39;9.80;;;8.80;;
2658;SDS011;1339;53.304;10.406;2023-05-10T13:07:08;10.70;;;9.70;;
2658;SDS011;1339;53.304;10.406;2023-05-10T13:09:35;9.03;;;8.23;;
2658;SDS011;1339;53.304;10.406;2023-05-10T13:12:02;8.30;;;7.60;;
2658;SDS011;1339;53.304;10.406;2023-05-10T13:14:29;8.87;;;8.17;;
2658;SDS011;1339;53.304;10.406;2023-05-10T13:16:56;8.40;;;7.60;;
2658;SDS011;1339;53.304;10.406;2023-05-10T13:19:23;8.73;;;8.03;;
2658;SDS011;1339;53.304;10.406;2023-05-10T13:21:50;8.23;;;7.60;;
2658;SDS011;1339;53.304;10.406;2023-05-10T13:24:19;8.20;;;7.37;;
2658;SDS011;1339;53.304;10.406;2023-05-10T13:26:46;8.30;;;7.50;;
2658;SDS011;1339;53.304;10.406;2023-05-10T13:29:13;7.97;;;7.27;;
2658;SDS011;1339;53.304;10.406;2023-05-10T13:31:42;7.90;;;7.30;;
2658;SDS011;1339;53.304;10.406;2023-05-10T13:34:09;9.60;;;8.77;;
2658;SDS011;1339;53.304;10.406;2023-05-10T13:36:36;8.90;;;8.20;;
2658;SDS011;1339;53.304;10.406;2023-05-10T13:39:04;8.13;;;7.47;;
2658;SDS011;1339;53.304;10.406;2023-05-10T13:41:32;7.80;;;7.10;;
2658;SDS011;1339;53.304;10.406;2023-05-10T13:43:59;8.73;;;7.93;;
2658;SDS011;1339;53.304;10.406;2023-05-10T13:46:26;8.40;;;7.60;;
2658;SDS011;1339;53.304;10.406;2023-05-10T13:48:53;7.77;;;6.70;;
2658;SDS011;1339;53.304;10.406;2023-05-10T13:51:20;6.90;;;6.40;;
2658;SDS011;1339;53.304;10.406;2023-05-10T13:53:47;7.20;;;6.50;;
2658;SDS011;1339;53.304;10.406;2023-05-10T13:56:14;6.97;;;6.37;;
2658;SDS011;1339;53.304;10.406;2023-05-10T13:58:42;7.20;;;6.60;;
2658;SDS011;1339;53.304;10.406;2023-05-10T14:01:09;6.40;;;5.83;;
2658;SDS011;1339;53.304;10.406;2023-05-10T14:03:37;7.50;;;7.00;;
2658;SDS011;1339;53.304;10.406;2023-05-10T14:06:04;7.83;;;7.13;;
2658;SDS011;1339;53.304;10.406;2023-05-10T14:08:33;8.13;;;7.50;;
2658;SDS011;1339;53.304;10.406;2023-05-10T14:11:00;8.13;;;6.63;;
2658;SDS011;1339;53.304;10.406;2023-05-10T14:13:27;5.67;;;5.27;;
2658;SDS011;1339;53.304;10.406;2023-05-10T14:15:55;7.13;;;6.00;;
2658;SDS011;1339;53.304;10.406;2023-05-10T14:18:25;7.57;;;6.87;;
2658;SDS011;1339;53.304;10.406;2023-05-10T14:20:52;7.00;;;6.40;;
2658;SDS011;1339;53.304;10.406;2023-05-10T14:23:19;6.13;;;5.67;;
2658;SDS011;1339;53.304;10.406;2023-05-10T14:25:49;6.10;;;5.60;;
2658;SDS011;1339;53.304;10.406;2023-05-10T14:28:16;5.77;;;5.27;;
2658;SDS011;1339;53.304;10.406;2023-05-10T14:30:44;9.40;;;5.90;;
2658;SDS011;1339;53.304;10.406;2023-05-10T14:33:12;5.90;;;5.37;;
2658;SDS011;1339;53.304;10.406;2023-05-10T14:35:39;4.63;;;4.33;;
2658;SDS011;1339;53.304;10.406;2023-05-10T14:38:07;5.17;;;4.70;;
2658;SDS011;1339;53.304;10.406;2023-05-10T14:40:35;4.93;;;4.60;;
2658;SDS011;1339;53.304;10.406;2023-05-10T14:43:02;5.37;;;4.90;;
2658;SDS011;1339;53.304;10.406;2023-05-10T14:45:29;5.47;;;4.97;;
2658;SDS011;1339;53.304;10.406;2023-05-10T14:47:59;5.10;;;4.70;;
2658;SDS011;1339;53.304;10.406;2023-05-10T14:50:30;6.90;;;6.17;;
2658;SDS011;1339;53.304;10.406;2023-05-10T14:52:57;5.50;;;5.00;;
2658;SDS011;1339;53.304;10.406;2023-05-10T14:55:25;5.97;;;5.43;;
2658;SDS011;1339;53.304;10.406;2023-05-10T14:57:52;4.73;;;4.43;;
2658;SDS011;1339;53.304;10.406;2023-05-10T15:00:19;5.17;;;4.77;;
2658;SDS011;1339;53.304;10.406;2023-05-10T15:02:46;4.10;;;3.80;;